METAR AND TAF INFORMATION
METAR FOR KSDF
KSDF 230356Z 14003KT 10SM FEW009 FEW080 SCT150 SCT300 23/20 A3003 RMK AO2 SLP163 T02280200
KSDF 230334Z 09003KT 10SM FEW009 SCT130 SCT300 23/20 A3002 RMK AO2 T02330200
KSDF 230256Z 13004KT 10SM FEW150 FEW300 23/20 A3001 RMK AO2 SLP157 T02330200 53005
KSDF 230156Z 24004KT 10SM FEW080 FEW120 BKN140 24/20 A2999 RMK AO2 SLP151 T02390200
KSDF 230520Z 2306/2412 00000KT P6SM SCT150
FM230800 00000KT 5SM BR BKN130
FM231300 VRB03KT P6SM BKN150
FM231800 23006KT P6SM BKN100
PROB30 2318/2324 5SM -TSRA BKN045CB
FM240000 21004KT P6SM BKN150

 AIRPORT MAP

 RUNWAY INFORMATION
Runway 11 Runway length 7250 ft Runway width 150 ft
Runway elevation 477 ft Runway displaced threshold 0 ft Runway heading 111
Runway 29 Runway length 7250 ft Runway width 150 ft
Runway elevation 480 ft Runway displaced threshold 0 ft Runway heading 291
Runway 17L Runway length 8579 ft Runway width 150 ft
Runway elevation 499 ft Runway displaced threshold 329 ft Runway heading 165
Runway 35R Runway length 8579 ft Runway width 150 ft
Runway elevation 472 ft Runway displaced threshold 450 ft Runway heading 345
Runway 17R Runway length 10850 ft Runway width 150 ft
Runway elevation 486 ft Runway displaced threshold 850 ft Runway heading 165
Runway 35L Runway length 10850 ft Runway width 150 ft
Runway elevation 461 ft Runway displaced threshold 0 ft Runway heading 345

 AIRPORT FREQUENCIES
Type APP Name APP Frequency 123.675 MHZ
Type ATIS Name ATIS Frequency 118.725 MHZ
Type CLD Name CLNC DEL Frequency 126.1 MHZ
Type DEP Name DEP Frequency 123.675 MHZ
Type GND Name GND Frequency 121.7 MHZ
Type OPS Name ANG OPS Frequency 26.81 MHZ
Type TWR Name TWR Frequency 124.2 MHZ
Type UNIC Name UNICOM Frequency 122.95 MHZ

 AIRPORT NEAR NAVIGATION AIDS

-